createdAt,value
2022-09-29T00:01:14.063Z,9.43
2022-09-29T00:03:41.225Z,9.41
2022-09-29T00:06:17.758Z,9.56
2022-09-29T00:08:47.960Z,9.50
2022-09-29T00:11:18.024Z,9.60
2022-09-29T00:13:47.096Z,9.56
2022-09-29T00:16:14.984Z,9.64
2022-09-29T00:18:42.183Z,9.60
2022-09-29T00:21:12.749Z,9.44
2022-09-29T00:23:40.575Z,9.45
2022-09-29T00:26:14.222Z,9.63
2022-09-29T00:28:46.714Z,9.36
2022-09-29T00:31:14.538Z,9.60
2022-09-29T00:33:42.109Z,9.59
2022-09-29T00:36:13.363Z,9.53
2022-09-29T00:38:42.062Z,9.50
2022-09-29T00:41:19.642Z,9.41
2022-09-29T00:43:59.144Z,9.41
2022-09-29T00:46:54.852Z,9.58
2022-09-29T00:49:45.605Z,9.46
2022-09-29T00:52:26.089Z,9.36
2022-09-29T00:54:59.304Z,9.60
2022-09-29T00:57:31.689Z,9.54
2022-09-29T01:00:14.636Z,9.56
2022-09-29T01:02:47.207Z,9.58
2022-09-29T01:05:21.194Z,9.54
2022-09-29T01:07:48.941Z,9.47
2022-09-29T01:10:17.881Z,9.47
2022-09-29T01:12:47.799Z,9.32
2022-09-29T01:15:18.380Z,9.30
2022-09-29T01:17:47.233Z,9.50
2022-09-29T01:20:25.963Z,9.41
2022-09-29T01:23:17.528Z,9.43
2022-09-29T01:26:06.581Z,9.58
2022-09-29T01:28:48.939Z,9.58
2022-09-29T01:31:30.967Z,9.33
2022-09-29T01:34:23.111Z,9.51
2022-09-29T01:37:32.174Z,9.46
2022-09-29T01:40:16.922Z,9.45
2022-09-29T01:42:59.330Z,9.45
2022-09-29T01:45:35.456Z,9.39
2022-09-29T01:48:15.186Z,9.32
2022-09-29T01:50:47.700Z,9.34
2022-09-29T01:53:23.563Z,9.25
2022-09-29T01:55:54.492Z,9.33
2022-09-29T01:58:30.605Z,9.36
2022-09-29T02:01:03.961Z,9.36
2022-09-29T02:03:38.401Z,9.37
2022-09-29T02:06:22.814Z,9.22
2022-09-29T02:08:55.404Z,9.19
2022-09-29T02:11:23.293Z,9.30
2022-09-29T02:14:04.426Z,9.32
2022-09-29T02:16:36.076Z,9.21
2022-09-29T02:19:09.006Z,9.31
2022-09-29T02:22:01.779Z,9.32
2022-09-29T02:24:29.313Z,9.26
2022-09-29T02:26:56.432Z,9.32
2022-09-29T02:29:24.185Z,9.13
2022-09-29T02:31:51.524Z,9.35
2022-09-29T02:34:21.899Z,9.20
2022-09-29T02:37:03.303Z,9.23
2022-09-29T02:39:58.922Z,9.36
2022-09-29T02:42:45.223Z,9.25
2022-09-29T02:45:18.213Z,9.35
2022-09-29T02:48:10.183Z,9.31
2022-09-29T02:50:37.487Z,9.28
2022-09-29T02:53:07.874Z,9.25
2022-09-29T02:55:49.606Z,9.22
2022-09-29T02:58:43.917Z,9.06
2022-09-29T03:01:16.820Z,9.21
2022-09-29T03:03:44.472Z,9.23
2022-09-29T03:06:13.501Z,9.23
2022-09-29T03:08:40.798Z,9.13
2022-09-29T03:11:08.108Z,9.19
2022-09-29T03:13:35.129Z,9.18
2022-09-29T03:16:02.684Z,9.13
2022-09-29T03:18:29.944Z,9.09
2022-09-29T03:20:57.622Z,9.13
2022-09-29T03:23:24.862Z,9.17
2022-09-29T03:25:52.022Z,9.10
2022-09-29T03:28:19.360Z,9.21
2022-09-29T03:30:46.844Z,9.19
2022-09-29T03:33:14.240Z,9.06
2022-09-29T03:35:44.481Z,9.17
2022-09-29T03:38:12.152Z,9.05
2022-09-29T03:40:39.514Z,8.96
2022-09-29T03:43:06.648Z,9.14
2022-09-29T03:45:33.804Z,8.94
2022-09-29T03:48:01.150Z,8.92
2022-09-29T03:50:28.481Z,9.00
2022-09-29T03:52:55.916Z,8.96
2022-09-29T03:55:23.247Z,9.09
2022-09-29T03:57:50.810Z,9.01
2022-09-29T04:00:18.604Z,9.15
2022-09-29T04:02:45.652Z,9.18
2022-09-29T04:05:13.071Z,9.12
2022-09-29T04:07:40.156Z,9.21
2022-09-29T04:10:07.637Z,9.07
2022-09-29T04:12:34.986Z,9.10
2022-09-29T04:15:02.486Z,9.17
2022-09-29T04:17:30.018Z,9.28
2022-09-29T04:19:57.483Z,9.27
2022-09-29T04:22:25.005Z,9.13
2022-09-29T04:24:52.547Z,9.28
2022-09-29T04:27:20.014Z,9.24
2022-09-29T04:29:48.362Z,9.35
2022-09-29T04:32:15.449Z,9.27
2022-09-29T04:34:43.187Z,9.23
2022-09-29T04:37:13.810Z,9.31
2022-09-29T04:39:41.190Z,9.30
2022-09-29T04:42:08.590Z,9.28
2022-09-29T04:44:35.791Z,9.38
2022-09-29T04:47:03.013Z,9.37
2022-09-29T04:49:31.496Z,9.59
2022-09-29T04:52:00.804Z,9.58
2022-09-29T04:54:37.857Z,9.54
2022-09-29T04:57:10.928Z,9.49
2022-09-29T04:59:40.731Z,9.69
2022-09-29T05:02:10.198Z,9.72
2022-09-29T05:04:53.012Z,9.80
2022-09-29T05:07:40.912Z,9.69
2022-09-29T05:10:10.266Z,9.74
2022-09-29T05:12:41.781Z,9.85
2022-09-29T05:16:01.636Z,9.90
2022-09-29T05:18:34.229Z,9.88
2022-09-29T05:21:29.890Z,9.88
2022-09-29T05:24:10.493Z,9.94
2022-09-29T05:26:37.744Z,9.98
2022-09-29T05:29:05.306Z,10.04
2022-09-29T05:31:34.222Z,10.00
2022-09-29T05:34:01.599Z,9.93
2022-09-29T05:36:54.250Z,9.89
2022-09-29T05:39:54.348Z,10.07
2022-09-29T05:42:20.751Z,10.01
2022-09-29T05:44:48.046Z,9.84
2022-09-29T05:47:28.429Z,9.91
2022-09-29T05:49:56.697Z,9.94
2022-09-29T05:52:27.152Z,9.69
2022-09-29T05:55:01.185Z,9.77
2022-09-29T05:57:41.966Z,9.79
2022-09-29T06:00:44.779Z,9.81
2022-09-29T06:03:12.276Z,9.91
2022-09-29T06:05:43.295Z,9.79
2022-09-29T06:08:11.326Z,9.79
2022-09-29T06:10:40.120Z,9.98
2022-09-29T06:13:08.040Z,9.85
2022-09-29T06:15:38.121Z,9.88
2022-09-29T06:18:05.617Z,9.59
2022-09-29T06:20:38.771Z,9.63
2022-09-29T06:23:07.620Z,9.54
2022-09-29T06:25:34.914Z,9.67
2022-09-29T06:28:03.938Z,9.67
2022-09-29T06:30:32.535Z,9.76
2022-09-29T06:33:03.151Z,9.52
2022-09-29T06:35:49.115Z,9.64
2022-09-29T06:38:17.347Z,9.78
2022-09-29T06:40:48.770Z,9.76
2022-09-29T06:43:16.336Z,9.96
2022-09-29T06:45:43.866Z,9.84
2022-09-29T06:48:11.864Z,9.84
2022-09-29T06:50:39.471Z,9.79
2022-09-29T06:53:06.891Z,9.96
2022-09-29T06:55:34.136Z,9.90
2022-09-29T06:58:04.075Z,10.00
2022-09-29T07:00:35.859Z,10.00
2022-09-29T07:03:03.862Z,10.06
2022-09-29T07:05:32.465Z,10.01
2022-09-29T07:08:01.305Z,9.97
2022-09-29T07:10:31.275Z,10.03
2022-09-29T07:13:01.071Z,9.93
2022-09-29T07:15:32.123Z,9.83
2022-09-29T07:18:01.427Z,9.96
2022-09-29T07:20:30.202Z,10.31
2022-09-29T07:22:58.668Z,10.23
2022-09-29T07:25:50.103Z,10.40
2022-09-29T07:28:13.583Z,10.37
2022-09-29T07:31:15.199Z,10.81
2022-09-29T07:33:43.860Z,10.85
2022-09-29T07:36:12.098Z,10.83
2022-09-29T07:38:39.430Z,10.73
2022-09-29T07:41:11.951Z,10.61
2022-09-29T07:43:39.803Z,10.65
2022-09-29T07:46:08.009Z,10.58
2022-09-29T07:48:36.869Z,10.89
2022-09-29T07:51:13.829Z,10.94
2022-09-29T07:53:42.006Z,11.18
2022-09-29T07:56:13.188Z,11.28
2022-09-29T07:58:41.251Z,11.76
2022-09-29T08:01:14.276Z,11.96
2022-09-29T08:03:45.188Z,11.85
2022-09-29T08:06:12.543Z,11.86
2022-09-29T08:08:42.322Z,11.82
2022-09-29T08:11:41.197Z,11.81
2022-09-29T08:14:11.057Z,11.69
2022-09-29T08:16:39.399Z,11.43
2022-09-29T08:19:07.449Z,11.29
2022-09-29T08:21:37.412Z,11.28
2022-09-29T08:24:06.803Z,11.13
2022-09-29T08:26:43.472Z,11.22
2022-09-29T08:29:16.358Z,11.22
2022-09-29T08:31:45.979Z,11.41
2022-09-29T08:34:14.109Z,11.44
2022-09-29T08:36:42.028Z,11.20
2022-09-29T08:39:11.394Z,11.20
2022-09-29T08:42:17.312Z,11.46
2022-09-29T08:45:02.053Z,11.74
2022-09-29T08:48:17.019Z,12.14
2022-09-29T08:50:59.630Z,12.37
2022-09-29T08:53:32.482Z,12.06
2022-09-29T08:56:09.968Z,12.09
2022-09-29T08:58:39.988Z,11.80
2022-09-29T09:01:52.500Z,11.81
2022-09-29T09:04:29.292Z,11.73
2022-09-29T09:07:29.250Z,11.73
2022-09-29T09:10:25.830Z,11.78
2022-09-29T09:13:08.637Z,11.75
2022-09-29T09:16:02.238Z,11.73
2022-09-29T09:18:48.781Z,11.80
2022-09-29T09:21:21.961Z,11.71
2022-09-29T09:24:05.464Z,11.65
2022-09-29T09:26:38.356Z,11.77
2022-09-29T09:29:17.366Z,11.79
2022-09-29T09:32:09.799Z,11.70
2022-09-29T09:34:50.014Z,11.97
2022-09-29T09:37:32.049Z,12.02
2022-09-29T09:40:06.955Z,11.99
2022-09-29T09:42:39.436Z,12.04
2022-09-29T09:45:24.432Z,12.35
2022-09-29T09:48:02.081Z,12.37
2022-09-29T09:50:30.218Z,12.22
2022-09-29T09:53:05.276Z,12.20
2022-09-29T09:55:37.274Z,12.30
2022-09-29T09:58:21.327Z,12.36
2022-09-29T10:00:56.572Z,12.36
2022-09-29T10:03:28.499Z,12.37
2022-09-29T10:05:56.140Z,12.49
2022-09-29T10:08:40.021Z,12.55
2022-09-29T10:11:32.069Z,12.63
2022-09-29T10:14:06.687Z,12.62
2022-09-29T10:16:46.463Z,12.57
2022-09-29T10:19:14.174Z,12.64
2022-09-29T10:21:45.317Z,12.76
2022-09-29T10:24:39.421Z,12.79
2022-09-29T10:27:11.141Z,12.59
2022-09-29T10:29:41.786Z,12.66
2022-09-29T10:32:13.730Z,12.50
2022-09-29T10:34:43.858Z,12.54
2022-09-29T10:37:46.766Z,12.63
2022-09-29T10:40:21.800Z,12.49
2022-09-29T10:42:51.315Z,12.51
2022-09-29T10:45:24.132Z,12.50
2022-09-29T10:48:07.535Z,12.75
2022-09-29T10:50:48.411Z,12.66
2022-09-29T10:53:38.519Z,12.76
2022-09-29T10:56:22.392Z,12.66
2022-09-29T10:59:03.316Z,12.78
2022-09-29T11:01:43.580Z,12.71
2022-09-29T11:04:20.079Z,12.48
2022-09-29T11:06:47.767Z,12.50
2022-09-29T11:09:18.535Z,12.56
2022-09-29T11:11:49.480Z,12.56
2022-09-29T11:14:39.815Z,12.35
2022-09-29T11:17:24.101Z,12.72
2022-09-29T11:19:53.822Z,12.71
2022-09-29T11:22:36.237Z,12.82
2022-09-29T11:25:41.234Z,12.92
2022-09-29T11:28:23.725Z,13.10
2022-09-29T11:31:30.709Z,13.36
2022-09-29T11:34:29.317Z,13.30
2022-09-29T11:37:26.395Z,13.51
2022-09-29T11:40:12.598Z,13.77
2022-09-29T11:43:12.582Z,13.90
2022-09-29T11:46:05.556Z,14.28
2022-09-29T11:48:47.468Z,14.89
2022-09-29T11:51:28.844Z,15.25
2022-09-29T11:54:38.481Z,15.36
2022-09-29T11:57:38.446Z,15.25
2022-09-29T12:00:19.255Z,16.18
2022-09-29T12:03:25.770Z,16.44
2022-09-29T12:06:23.821Z,16.13
2022-09-29T12:09:12.027Z,15.26
2022-09-29T12:12:18.785Z,14.73
2022-09-29T12:14:57.059Z,14.48
2022-09-29T12:17:30.611Z,14.40
2022-09-29T12:20:17.364Z,14.42
2022-09-29T12:22:50.934Z,14.88
2022-09-29T12:25:28.027Z,15.36
2022-09-29T12:28:05.887Z,15.22
2022-09-29T12:30:51.953Z,15.04
2022-09-29T12:33:35.139Z,14.79
2022-09-29T12:37:05.792Z,14.72
2022-09-29T12:39:53.291Z,14.95
2022-09-29T12:42:51.307Z,15.29
2022-09-29T12:45:55.612Z,15.41
2022-09-29T12:48:52.317Z,15.28
2022-09-29T12:51:35.098Z,14.94
2022-09-29T12:54:13.892Z,14.74
2022-09-29T12:57:05.508Z,14.52
2022-09-29T12:59:35.823Z,14.37
2022-09-29T13:02:28.312Z,14.13
2022-09-29T13:05:22.371Z,14.16
2022-09-29T13:08:05.026Z,14.06
2022-09-29T13:10:56.235Z,13.95
2022-09-29T13:13:29.746Z,13.95
2022-09-29T13:16:15.383Z,13.93
2022-09-29T13:19:45.696Z,13.85
2022-09-29T13:22:39.305Z,13.76
2022-09-29T13:25:45.375Z,13.75
2022-09-29T13:28:26.067Z,13.70
2022-09-29T13:30:56.303Z,13.73
2022-09-29T13:33:25.915Z,13.59
2022-09-29T13:35:53.972Z,13.60
2022-09-29T13:38:39.667Z,13.74
2022-09-29T13:41:16.427Z,13.76
2022-09-29T13:43:45.644Z,13.78
2022-09-29T13:46:34.473Z,13.82
2022-09-29T13:49:13.701Z,13.85
2022-09-29T13:51:52.844Z,13.92
2022-09-29T13:54:35.064Z,13.94
2022-09-29T13:57:26.170Z,13.97
2022-09-29T13:59:57.086Z,14.00
2022-09-29T14:02:36.319Z,14.00
2022-09-29T14:05:06.771Z,13.84
2022-09-29T14:07:42.044Z,13.97
2022-09-29T14:10:36.835Z,13.95
2022-09-29T14:18:59.176Z,13.86
2022-09-29T14:22:02.433Z,13.79
2022-09-29T14:24:45.770Z,13.77
2022-09-29T14:27:30.582Z,13.61
2022-09-29T14:30:14.508Z,13.77
2022-09-29T14:33:03.450Z,13.76
2022-09-29T14:35:40.054Z,13.52
2022-09-29T14:38:14.028Z,13.68
2022-09-29T14:41:24.188Z,13.58
2022-09-29T14:48:28.723Z,13.39
2022-09-29T14:51:56.719Z,13.31
2022-09-29T14:54:49.833Z,13.23
2022-09-29T14:57:35.768Z,13.20
2022-09-29T15:00:06.391Z,13.16
2022-09-29T15:02:37.482Z,13.02
2022-09-29T15:05:34.978Z,12.89
2022-09-29T15:08:26.495Z,12.84
2022-09-29T15:10:57.128Z,12.90
2022-09-29T15:13:31.882Z,12.88
2022-09-29T15:16:09.180Z,12.71
2022-09-29T15:19:09.163Z,12.80
2022-09-29T15:22:05.810Z,12.69
2022-09-29T15:24:50.379Z,12.74
2022-09-29T15:27:17.988Z,12.45
2022-09-29T15:29:51.410Z,12.56
2022-09-29T15:32:28.292Z,12.43
2022-09-29T15:35:05.546Z,12.29
2022-09-29T15:37:51.435Z,12.58
2022-09-29T15:40:23.656Z,12.43
2022-09-29T15:42:55.977Z,12.53
2022-09-29T15:48:25.086Z,12.21
2022-09-29T15:51:10.744Z,12.18
2022-09-29T15:53:54.248Z,12.19
2022-09-29T15:56:22.418Z,12.11
2022-09-29T15:58:50.410Z,12.11
2022-09-29T16:01:19.470Z,12.14
2022-09-29T16:03:54.204Z,12.23
2022-09-29T16:06:28.679Z,11.99
2022-09-29T16:09:03.637Z,12.05
2022-09-29T16:11:37.057Z,12.07
2022-09-29T16:14:22.640Z,12.11
2022-09-29T16:16:51.987Z,12.04
2022-09-29T16:19:28.033Z,12.08
2022-09-29T16:22:02.044Z,11.96
2022-09-29T16:24:36.430Z,11.95
2022-09-29T16:27:04.332Z,12.06
2022-09-29T16:29:36.292Z,11.93
2022-09-29T16:32:38.616Z,12.06
2022-09-29T16:35:41.050Z,11.83
2022-09-29T16:38:27.623Z,12.03
2022-09-29T16:40:57.256Z,11.84
2022-09-29T16:43:31.872Z,11.82
2022-09-29T16:46:02.706Z,11.81
2022-09-29T16:48:32.525Z,11.89
2022-09-29T16:51:38.613Z,11.89
2022-09-29T16:54:06.926Z,11.76
2022-09-29T16:56:37.004Z,11.58
2022-09-29T16:59:17.393Z,11.65
2022-09-29T17:01:46.628Z,11.71
2022-09-29T17:04:15.395Z,11.58
2022-09-29T17:06:48.360Z,11.71
2022-09-29T17:09:27.421Z,11.65
2022-09-29T17:11:55.538Z,11.54
2022-09-29T17:14:25.480Z,11.73
2022-09-29T17:16:56.332Z,11.65
2022-09-29T17:19:26.476Z,11.55
2022-09-29T17:22:49.914Z,11.70
2022-09-29T17:25:19.931Z,11.51
2022-09-29T17:28:07.599Z,11.55
2022-09-29T17:30:35.098Z,11.53
2022-09-29T17:33:03.973Z,11.53
2022-09-29T17:35:38.228Z,11.59
2022-09-29T17:38:09.684Z,11.48
2022-09-29T17:40:40.185Z,11.54
2022-09-29T17:43:07.969Z,11.33
2022-09-29T17:45:42.099Z,11.37
2022-09-29T17:48:10.265Z,11.32
2022-09-29T17:50:46.225Z,11.33
2022-09-29T17:53:19.793Z,11.32
2022-09-29T17:55:50.074Z,11.21
2022-09-29T17:58:19.687Z,11.39
2022-09-29T18:00:50.256Z,11.22
2022-09-29T18:03:19.864Z,11.21
2022-09-29T18:05:55.972Z,11.22
2022-09-29T18:08:25.758Z,11.32
2022-09-29T18:10:56.080Z,11.18
2022-09-29T18:13:27.657Z,11.29
2022-09-29T18:15:59.362Z,11.31
2022-09-29T18:18:31.546Z,11.28
2022-09-29T18:21:16.231Z,11.28
2022-09-29T18:24:06.797Z,11.18
2022-09-29T18:26:37.668Z,11.16
2022-09-29T18:29:16.230Z,11.41
2022-09-29T18:31:44.393Z,11.18
2022-09-29T18:34:22.221Z,11.28
2022-09-29T18:36:50.594Z,11.34
2022-09-29T18:39:17.967Z,11.17
2022-09-29T18:43:15.145Z,11.34
2022-09-29T18:45:46.459Z,11.21
2022-09-29T18:48:16.175Z,11.10
2022-09-29T18:51:16.716Z,11.28
2022-09-29T18:53:48.603Z,11.20
2022-09-29T18:56:22.518Z,11.13
2022-09-29T18:58:50.162Z,11.09
2022-09-29T19:01:23.626Z,11.11
2022-09-29T19:03:51.119Z,10.98
2022-09-29T19:06:18.866Z,11.15
2022-09-29T19:08:49.304Z,10.97
2022-09-29T19:11:48.748Z,11.20
2022-09-29T19:14:16.613Z,11.06
2022-09-29T19:16:46.289Z,11.06
2022-09-29T19:19:13.616Z,11.08
2022-09-29T19:21:50.994Z,11.04
2022-09-29T19:24:18.794Z,11.14
2022-09-29T19:26:46.373Z,10.96
2022-09-29T19:29:13.942Z,11.16
2022-09-29T19:37:25.457Z,11.11
2022-09-29T19:40:19.500Z,11.21
2022-09-29T19:42:55.218Z,10.97
2022-09-29T19:45:23.055Z,10.99
2022-09-29T19:47:54.916Z,11.05
2022-09-29T19:50:42.505Z,11.17
2022-09-29T19:53:11.275Z,10.90
2022-09-29T19:55:45.735Z,10.92
2022-09-29T19:58:19.294Z,10.94
2022-09-29T20:00:57.709Z,10.93
2022-09-29T20:03:25.188Z,10.86
2022-09-29T20:06:04.439Z,11.06
2022-09-29T20:08:37.416Z,10.82
2022-09-29T20:11:11.307Z,10.76
2022-09-29T20:13:41.509Z,10.82
2022-09-29T20:16:08.898Z,10.83
2022-09-29T20:18:37.879Z,10.90
2022-09-29T20:21:13.549Z,10.73
2022-09-29T20:23:42.397Z,10.69
2022-09-29T20:26:10.854Z,10.66
2022-09-29T20:28:44.827Z,10.51
2022-09-29T20:31:13.582Z,10.56
2022-09-29T20:33:44.004Z,10.66
2022-09-29T20:36:17.701Z,10.40
2022-09-29T20:38:53.531Z,10.43
2022-09-29T20:41:24.796Z,10.59
2022-09-29T20:43:54.866Z,10.34
2022-09-29T20:46:27.365Z,10.34
2022-09-29T20:49:01.382Z,10.28
2022-09-29T20:51:57.119Z,10.51
2022-09-29T20:54:29.062Z,10.31
2022-09-29T20:56:56.836Z,10.38
2022-09-29T20:59:25.888Z,10.42
2022-09-29T21:02:43.506Z,10.47
2022-09-29T21:05:15.491Z,10.30
2022-09-29T21:07:44.586Z,10.43
2022-09-29T21:10:13.403Z,10.31
2022-09-29T21:12:42.999Z,10.27
2022-09-29T21:15:15.393Z,10.33
2022-09-29T21:17:45.500Z,10.32
2022-09-29T21:20:16.095Z,10.15
2022-09-29T21:22:44.610Z,10.22
2022-09-29T21:25:14.829Z,10.13
2022-09-29T21:27:45.776Z,10.20
2022-09-29T21:30:16.847Z,10.16
2022-09-29T21:32:48.983Z,10.21
2022-09-29T21:35:19.480Z,10.20
2022-09-29T21:37:49.492Z,10.28
2022-09-29T21:40:17.408Z,10.40
2022-09-29T21:42:47.566Z,10.30
2022-09-29T21:45:16.420Z,10.24
2022-09-29T21:48:11.627Z,10.28
2022-09-29T21:50:40.409Z,10.21
2022-09-29T21:53:09.429Z,10.14
2022-09-29T21:55:41.885Z,10.11
2022-09-29T21:58:12.215Z,10.24
2022-09-29T22:00:45.290Z,10.17
2022-09-29T22:03:16.138Z,10.34
2022-09-29T22:05:52.426Z,10.34
2022-09-29T22:08:20.504Z,10.24
2022-09-29T22:11:16.515Z,10.32
2022-09-29T22:13:44.408Z,10.24
2022-09-29T22:16:16.279Z,10.21
2022-09-29T22:18:44.927Z,10.29
2022-09-29T22:21:19.938Z,10.19
2022-09-29T22:24:01.042Z,10.28
2022-09-29T22:26:29.111Z,10.26
2022-09-29T22:28:59.999Z,10.20
2022-09-29T22:31:28.487Z,10.25
2022-09-29T22:33:58.587Z,10.08
2022-09-29T22:36:31.536Z,10.09
2022-09-29T22:38:58.982Z,10.04
2022-09-29T22:41:26.699Z,10.23
2022-09-29T22:43:56.855Z,10.22
2022-09-29T22:46:29.728Z,10.07
2022-09-29T22:49:03.346Z,10.12
2022-09-29T22:51:31.127Z,10.13
2022-09-29T22:53:59.761Z,10.20
2022-09-29T22:56:31.264Z,10.11
2022-09-29T22:59:04.718Z,10.18
2022-09-29T23:01:40.574Z,10.13
2022-09-29T23:04:10.460Z,10.16
2022-09-29T23:06:41.805Z,10.19
2022-09-29T23:09:11.876Z,10.20
2022-09-29T23:11:43.586Z,10.18
2022-09-29T23:14:12.293Z,10.28
2022-09-29T23:16:42.251Z,10.30
2022-09-29T23:19:13.081Z,10.26
2022-09-29T23:21:40.833Z,10.22
2022-09-29T23:24:08.504Z,10.14
2022-09-29T23:26:36.183Z,10.09
2022-09-29T23:29:12.025Z,10.16
2022-09-29T23:31:49.290Z,10.22
2022-09-29T23:34:25.830Z,10.20
2022-09-29T23:36:54.113Z,10.36
2022-09-29T23:39:22.706Z,10.36
2022-09-29T23:41:54.236Z,10.09
2022-09-29T23:44:38.518Z,10.18
2022-09-29T23:47:10.765Z,10.26
2022-09-29T23:49:39.197Z,10.19
2022-09-29T23:52:09.166Z,10.18
2022-09-29T23:54:39.003Z,10.26
2022-09-29T23:57:09.221Z,10.02
2022-09-29T23:59:36.756Z,10.06
